createdAt,value
2022-10-28T00:02:08.325Z,12.40
2022-10-28T00:04:38.331Z,12.30
2022-10-28T00:07:12.025Z,12.20
2022-10-28T00:09:41.997Z,12.10
2022-10-28T00:12:12.019Z,12.00
2022-10-28T00:14:44.743Z,12.00
2022-10-28T00:17:14.956Z,12.00
2022-10-28T00:19:45.018Z,12.00
2022-10-28T00:22:15.069Z,12.00
2022-10-28T00:24:45.046Z,11.90
2022-10-28T00:27:15.073Z,11.90
2022-10-28T00:29:47.759Z,11.90
2022-10-28T00:32:17.827Z,11.90
2022-10-28T01:03:04.988Z,11.30
2022-10-28T01:05:41.520Z,11.30
2022-10-28T01:08:11.994Z,11.20
2022-10-28T01:11:10.665Z,11.40
2022-10-28T01:14:00.873Z,11.50
2022-10-28T01:16:46.779Z,11.50
2022-10-28T01:20:04.417Z,11.50
2022-10-28T01:22:44.631Z,11.40
2022-10-28T01:25:59.313Z,11.40
2022-10-28T01:29:04.782Z,11.30
2022-10-28T01:31:47.484Z,11.40
2022-10-28T01:34:30.387Z,11.40
2022-10-28T01:37:10.778Z,11.40
2022-10-28T01:39:51.062Z,11.50
2022-10-28T01:42:31.319Z,11.50
2022-10-28T01:45:10.994Z,11.50
2022-10-28T01:47:52.873Z,11.50
2022-10-28T01:50:32.513Z,11.50
2022-10-28T01:53:09.188Z,11.40
2022-10-28T01:55:42.939Z,11.40
2022-10-28T01:58:17.918Z,11.20
2022-10-28T02:00:50.226Z,11.00
2022-10-28T02:03:23.522Z,10.90
2022-10-28T02:05:59.332Z,10.80
2022-10-28T02:09:06.682Z,10.90
2022-10-28T02:12:24.625Z,10.90
2022-10-28T02:15:22.282Z,10.80
2022-10-28T02:18:19.065Z,10.70
2022-10-28T02:20:58.736Z,10.80
2022-10-28T02:23:44.370Z,11.00
2022-10-28T02:26:24.751Z,11.00
2022-10-28T02:29:08.511Z,11.00
2022-10-28T02:31:45.735Z,10.70
2022-10-28T02:34:23.016Z,10.80
2022-10-28T02:37:02.194Z,10.80
2022-10-28T02:39:38.748Z,10.80
2022-10-28T02:42:15.224Z,10.70
2022-10-28T02:44:51.393Z,10.50
2022-10-28T02:47:31.579Z,10.60
2022-10-28T02:50:07.541Z,10.60
2022-10-28T02:52:44.639Z,10.70
2022-10-28T02:55:14.763Z,10.80
2022-10-28T02:57:48.567Z,10.80
2022-10-28T03:00:24.612Z,10.80
2022-10-28T03:02:54.932Z,10.80
2022-10-28T03:05:24.932Z,10.70
2022-10-28T03:07:57.506Z,10.60
2022-10-28T03:10:27.458Z,10.50
2022-10-28T03:12:57.611Z,10.40
2022-10-28T03:15:27.621Z,10.60
2022-10-28T03:17:57.626Z,10.50
2022-10-28T03:20:27.731Z,10.50
2022-10-28T03:23:00.378Z,10.50
2022-10-28T03:25:30.483Z,10.50
2022-10-28T03:28:00.463Z,10.60
2022-10-28T03:30:30.475Z,10.70
2022-10-28T03:33:00.486Z,10.70
2022-10-28T03:35:30.514Z,10.60
2022-10-28T03:38:03.236Z,10.50
2022-10-28T03:40:34.289Z,10.60
2022-10-28T03:43:04.499Z,10.80
2022-10-28T03:45:34.529Z,10.90
2022-10-28T03:48:04.533Z,10.80
2022-10-28T03:50:34.938Z,10.60
2022-10-28T03:53:07.582Z,10.80
2022-10-28T03:55:37.748Z,10.90
2022-10-28T03:58:07.780Z,11.00
2022-10-28T04:00:37.874Z,11.20
2022-10-28T04:03:07.955Z,11.20
2022-10-28T04:05:38.006Z,11.20
2022-10-28T04:08:10.824Z,11.30
2022-10-28T04:10:44.900Z,11.30
2022-10-28T04:13:19.349Z,11.30
2022-10-28T04:15:49.397Z,11.10
2022-10-28T04:18:19.369Z,11.10
2022-10-28T04:20:49.553Z,11.10
2022-10-28T04:23:22.217Z,11.20
2022-10-28T04:25:55.961Z,11.20
2022-10-28T04:28:26.865Z,11.20
2022-10-28T04:30:57.137Z,11.20
2022-10-28T04:33:27.210Z,11.10
2022-10-28T04:35:57.330Z,11.20
2022-10-28T04:38:29.976Z,11.30
2022-10-28T04:41:00.220Z,11.40
2022-10-28T04:43:30.209Z,11.50
2022-10-28T04:46:05.907Z,11.60
2022-10-28T04:48:35.981Z,11.60
2022-10-28T04:51:06.570Z,11.60
2022-10-28T04:53:39.162Z,11.60
2022-10-28T04:56:10.297Z,11.60
2022-10-28T04:58:40.402Z,11.60
2022-10-28T05:01:11.238Z,11.60
2022-10-28T05:03:41.326Z,11.70
2022-10-28T05:06:11.457Z,11.80
2022-10-28T05:08:44.104Z,11.80
2022-10-28T05:11:14.178Z,11.90
2022-10-28T05:13:44.630Z,11.90
2022-10-28T05:16:14.705Z,11.90
2022-10-28T05:21:34.762Z,11.90
2022-10-28T05:24:08.620Z,12.00
2022-10-28T05:26:39.025Z,11.90
2022-10-28T05:29:09.349Z,11.90
2022-10-28T05:31:39.418Z,11.80
2022-10-28T05:34:09.673Z,11.80
2022-10-28T05:36:39.744Z,11.90
2022-10-28T05:39:12.857Z,11.70
2022-10-28T05:41:42.942Z,11.70
2022-10-28T05:44:13.011Z,11.70
2022-10-28T05:46:43.045Z,11.70
2022-10-28T05:49:13.082Z,11.40
2022-10-28T05:51:43.102Z,11.40
2022-10-28T05:54:15.769Z,11.40
2022-10-28T05:56:45.787Z,11.50
2022-10-28T05:59:15.814Z,11.60
2022-10-28T06:01:45.908Z,11.50
2022-10-28T06:04:16.438Z,11.60
2022-10-28T06:06:46.502Z,11.50
2022-10-28T06:09:19.397Z,11.40
2022-10-28T06:11:47.902Z,11.50
2022-10-28T06:14:17.965Z,11.50
2022-10-28T06:16:47.965Z,11.50
2022-10-28T06:19:18.094Z,11.50
2022-10-28T06:21:48.068Z,11.50
2022-10-28T06:24:20.719Z,11.60
2022-10-28T06:26:50.681Z,11.60
2022-10-28T06:29:20.873Z,11.60
2022-10-28T06:31:50.862Z,11.60
2022-10-28T06:34:20.976Z,11.60
2022-10-28T06:36:51.036Z,11.60
2022-10-28T06:39:23.658Z,11.70
2022-10-28T06:41:53.676Z,11.80
2022-10-28T06:44:23.829Z,11.80
2022-10-28T06:46:55.381Z,11.90
2022-10-28T06:49:25.732Z,11.90
2022-10-28T06:51:55.755Z,12.00
2022-10-28T06:54:28.542Z,12.10
2022-10-28T06:56:58.524Z,12.20
2022-10-28T06:59:28.553Z,12.30
2022-10-28T07:01:58.694Z,12.40
2022-10-28T07:04:28.910Z,12.60
2022-10-28T07:07:00.239Z,12.70
2022-10-28T07:09:33.700Z,12.90
2022-10-28T07:12:05.605Z,13.10
2022-10-28T07:14:37.134Z,13.30
2022-10-28T07:17:07.309Z,13.50
2022-10-28T07:19:37.407Z,13.50
2022-10-28T07:22:07.495Z,13.30
2022-10-28T07:24:40.161Z,13.30
2022-10-28T07:27:11.409Z,13.40
2022-10-28T07:29:41.425Z,13.50
2022-10-28T07:32:11.473Z,13.50
2022-10-28T07:34:41.516Z,13.70
2022-10-28T07:37:11.614Z,14.00
2022-10-28T07:39:44.472Z,14.10
2022-10-28T07:42:14.544Z,14.40
2022-10-28T07:44:44.615Z,14.60
2022-10-28T07:47:14.801Z,14.90
2022-10-28T07:49:44.909Z,15.00
2022-10-28T07:52:14.923Z,15.10
2022-10-28T07:54:47.497Z,15.40
2022-10-28T07:57:17.588Z,15.60
2022-10-28T07:59:47.903Z,15.80
2022-10-28T08:02:21.913Z,15.80
2022-10-28T08:04:52.275Z,15.90
2022-10-28T08:07:23.183Z,16.00
2022-10-28T08:09:55.921Z,15.80
2022-10-28T08:12:25.951Z,15.60
2022-10-28T08:14:56.315Z,15.70
2022-10-28T08:17:26.386Z,16.00
2022-10-28T08:19:56.533Z,16.20
2022-10-28T08:22:26.837Z,16.50
2022-10-28T08:24:59.458Z,16.80
2022-10-28T08:27:29.459Z,17.00
2022-10-28T08:29:59.475Z,17.10
2022-10-28T08:32:29.582Z,17.30
2022-10-28T08:34:59.573Z,17.40
2022-10-28T08:37:29.974Z,17.40
2022-10-28T08:40:02.643Z,17.30
2022-10-28T08:42:47.157Z,17.40
2022-10-28T08:45:28.746Z,17.40
2022-10-28T08:48:16.894Z,17.40
2022-10-28T08:50:55.723Z,17.40
2022-10-28T08:53:32.839Z,17.60
2022-10-28T08:56:16.972Z,17.70
2022-10-28T08:58:49.973Z,17.70
2022-10-28T09:01:33.023Z,17.90
2022-10-28T09:04:10.539Z,18.10
2022-10-28T09:06:40.685Z,18.40
2022-10-28T09:09:23.251Z,18.60
2022-10-28T09:12:19.479Z,18.80
2022-10-28T09:15:18.133Z,19.10
2022-10-28T09:17:57.248Z,19.50
2022-10-28T09:20:51.381Z,19.80
2022-10-28T09:23:27.689Z,20.10
2022-10-28T09:26:15.804Z,20.30
2022-10-28T09:29:15.903Z,20.40
2022-10-28T09:31:51.508Z,20.50
2022-10-28T09:34:38.164Z,20.50
2022-10-28T09:37:18.025Z,20.40
2022-10-28T09:39:53.908Z,20.30
2022-10-28T09:42:30.757Z,20.40
2022-10-28T09:45:09.768Z,20.30
2022-10-28T09:47:44.761Z,20.20
2022-10-28T09:50:21.851Z,20.00
2022-10-28T09:53:02.090Z,19.90
2022-10-28T09:55:33.045Z,19.60
2022-10-28T09:58:05.081Z,19.30
2022-10-28T10:00:37.772Z,19.50
2022-10-28T10:03:07.985Z,19.90
2022-10-28T10:05:47.355Z,20.10
2022-10-28T10:08:22.764Z,20.20
2022-10-28T10:10:57.279Z,20.40
2022-10-28T10:13:32.307Z,20.50
2022-10-28T10:16:17.626Z,20.50
2022-10-28T10:18:54.192Z,20.90
2022-10-28T10:21:45.235Z,21.40
2022-10-28T10:24:34.076Z,21.70
2022-10-28T10:27:20.191Z,21.90
2022-10-28T10:29:54.155Z,21.80
2022-10-28T10:32:30.947Z,21.60
2022-10-28T10:35:09.297Z,21.70
2022-10-28T10:37:45.504Z,21.70
2022-10-28T10:40:26.994Z,20.50
2022-10-28T10:43:13.187Z,20.60
2022-10-28T10:45:44.906Z,20.40
2022-10-28T10:48:19.199Z,20.40
2022-10-28T10:50:52.690Z,20.50
2022-10-28T10:53:29.899Z,20.70
2022-10-28T10:56:04.336Z,21.30
2022-10-28T10:58:38.451Z,22.00
2022-10-28T11:01:10.898Z,22.40
2022-10-28T11:06:32.448Z,21.90
2022-10-28T11:09:07.102Z,21.50
2022-10-28T11:11:40.342Z,21.70
2022-10-28T11:14:27.923Z,21.90
2022-10-28T11:16:59.990Z,21.20
2022-10-28T11:19:36.456Z,20.70
2022-10-28T11:22:28.908Z,20.70
2022-10-28T11:25:35.909Z,20.80
2022-10-28T11:28:29.229Z,21.20
2022-10-28T11:31:33.009Z,21.80
2022-10-28T11:34:33.063Z,22.10
2022-10-28T11:37:21.697Z,22.50
2022-10-28T11:40:10.378Z,22.60
2022-10-28T11:42:52.713Z,22.50
2022-10-28T11:45:37.729Z,22.10
2022-10-28T11:48:33.382Z,21.80
2022-10-28T11:51:23.091Z,21.50
2022-10-28T11:54:23.888Z,21.40
2022-10-28T11:57:04.431Z,21.70
2022-10-28T12:00:17.575Z,22.10
2022-10-28T12:03:11.734Z,22.40
2022-10-28T12:05:51.412Z,23.10
2022-10-28T12:08:45.935Z,23.80
2022-10-28T12:11:35.261Z,23.50
2022-10-28T12:14:19.476Z,22.60
2022-10-28T12:16:59.251Z,21.70
2022-10-28T12:19:34.917Z,21.50
2022-10-28T12:22:13.752Z,21.40
2022-10-28T12:24:48.414Z,21.50
2022-10-28T12:27:30.945Z,21.60
2022-10-28T12:30:10.276Z,21.60
2022-10-28T12:32:43.050Z,21.90
2022-10-28T12:35:22.743Z,22.20
2022-10-28T12:38:04.282Z,22.70
2022-10-28T12:40:45.477Z,23.00
2022-10-28T12:43:31.867Z,23.50
2022-10-28T12:46:02.905Z,23.90
2022-10-28T12:48:41.996Z,24.20
2022-10-28T12:51:20.231Z,24.50
2022-10-28T12:54:01.163Z,24.80
2022-10-28T12:56:39.212Z,25.10
2022-10-28T12:59:20.621Z,24.90
2022-10-28T13:01:53.477Z,24.50
2022-10-28T13:04:23.643Z,24.20
2022-10-28T13:07:33.246Z,23.90
2022-10-28T13:13:34.553Z,23.60
2022-10-28T13:16:52.938Z,23.50
2022-10-28T13:19:47.104Z,23.50
2022-10-28T13:22:52.297Z,23.50
2022-10-28T13:25:54.385Z,23.20
2022-10-28T13:28:28.020Z,22.80
2022-10-28T13:31:01.932Z,22.80
2022-10-28T13:33:38.645Z,22.20
2022-10-28T13:36:20.532Z,22.10
2022-10-28T13:38:59.782Z,22.40
2022-10-28T13:41:37.442Z,22.50
2022-10-28T13:44:30.528Z,22.60
2022-10-28T13:47:27.879Z,22.70
2022-10-28T13:50:39.363Z,22.70
2022-10-28T13:53:42.189Z,22.50
2022-10-28T13:56:47.635Z,22.20
2022-10-28T13:59:32.037Z,22.00
2022-10-28T14:02:40.696Z,21.90
2022-10-28T14:05:13.797Z,21.70
2022-10-28T14:07:58.097Z,21.70
2022-10-28T14:10:31.574Z,21.80
2022-10-28T14:13:08.565Z,21.90
2022-10-28T14:15:41.678Z,22.10
2022-10-28T14:18:42.988Z,22.40
2022-10-28T14:21:14.053Z,22.70
2022-10-28T14:24:16.783Z,22.90
2022-10-28T14:27:25.347Z,23.10
2022-10-28T14:30:23.152Z,23.40
2022-10-28T14:33:22.721Z,23.50
2022-10-28T14:36:17.080Z,23.70
2022-10-28T14:39:40.089Z,23.70
2022-10-28T14:42:36.944Z,23.60
2022-10-28T14:45:29.087Z,23.70
2022-10-28T14:48:44.284Z,23.70
2022-10-28T14:51:20.079Z,23.50
2022-10-28T14:53:53.127Z,23.30
2022-10-28T14:56:29.999Z,23.30
2022-10-28T14:59:06.401Z,23.30
2022-10-28T15:01:58.783Z,23.30
2022-10-28T15:04:31.484Z,23.40
2022-10-28T15:07:02.383Z,23.30
2022-10-28T15:09:36.269Z,23.20
2022-10-28T15:12:13.647Z,23.20
2022-10-28T15:14:48.545Z,23.00
2022-10-28T15:17:22.297Z,22.90
2022-10-28T15:19:55.187Z,22.80
2022-10-28T15:22:28.209Z,22.80
2022-10-28T15:25:02.377Z,22.70
2022-10-28T15:27:38.768Z,22.60
2022-10-28T15:30:19.123Z,22.30
2022-10-28T15:32:49.537Z,22.10
2022-10-28T15:35:42.481Z,22.00
2022-10-28T15:38:41.153Z,21.80
2022-10-28T15:41:45.391Z,21.60
2022-10-28T15:44:35.136Z,21.50
2022-10-28T15:47:26.175Z,21.30
2022-10-28T15:50:04.884Z,21.20
2022-10-28T15:52:38.716Z,21.00
2022-10-28T15:55:41.462Z,21.00
2022-10-28T15:58:38.339Z,20.80
2022-10-28T16:01:31.805Z,20.60
2022-10-28T16:04:02.008Z,20.40
2022-10-28T16:06:34.985Z,20.40
2022-10-28T16:09:29.013Z,20.20
2022-10-28T16:12:05.296Z,20.20
2022-10-28T16:14:40.348Z,19.90
2022-10-28T16:17:19.744Z,19.70
2022-10-28T16:19:55.938Z,19.50
2022-10-28T16:22:29.771Z,19.50
2022-10-28T16:25:00.354Z,19.30
2022-10-28T16:27:34.300Z,19.10
2022-10-28T16:30:04.390Z,19.00
2022-10-28T16:32:41.402Z,19.10
2022-10-28T16:35:19.183Z,19.10
2022-10-28T16:37:54.733Z,19.10
2022-10-28T16:43:19.968Z,18.80
2022-10-28T16:45:51.372Z,18.60
2022-10-28T16:48:27.535Z,18.50
2022-10-28T16:51:01.413Z,18.40
2022-10-28T16:53:32.045Z,18.20
2022-10-28T16:56:02.132Z,18.20
2022-10-28T16:58:32.436Z,18.20
2022-10-28T17:01:03.173Z,18.00
2022-10-28T17:03:35.793Z,17.90
2022-10-28T17:06:05.839Z,17.80
2022-10-28T17:09:01.260Z,17.70
2022-10-28T17:11:25.995Z,17.60
2022-10-28T17:13:56.033Z,17.40
2022-10-28T17:16:26.044Z,17.40
2022-10-28T17:18:58.644Z,17.50
2022-10-28T17:21:28.804Z,17.50
2022-10-28T17:23:58.838Z,17.30
2022-10-28T17:26:28.869Z,17.40
2022-10-28T17:28:59.150Z,17.40
2022-10-28T17:31:29.318Z,17.30
2022-10-28T17:34:01.929Z,17.30
2022-10-28T17:36:32.075Z,17.30
2022-10-28T17:39:02.100Z,17.30
2022-10-28T17:41:32.511Z,17.10
2022-10-28T17:44:02.796Z,17.10
2022-10-28T17:46:35.950Z,17.00
2022-10-28T17:49:11.661Z,17.00
2022-10-28T17:51:41.906Z,17.00
2022-10-28T17:54:12.706Z,16.90
2022-10-28T17:56:42.893Z,16.90
2022-10-28T17:59:13.118Z,16.70
2022-10-28T18:01:43.227Z,16.50
2022-10-28T18:04:16.668Z,16.40
2022-10-28T18:06:46.739Z,16.10
2022-10-28T18:09:17.229Z,15.90
2022-10-28T18:11:47.527Z,15.90
2022-10-28T18:14:17.815Z,15.90
2022-10-28T18:16:50.261Z,16.00
2022-10-28T18:19:23.015Z,16.00
2022-10-28T18:21:53.233Z,16.00
2022-10-28T18:24:25.947Z,16.00
2022-10-28T18:26:58.740Z,16.00
2022-10-28T18:29:31.548Z,16.10
2022-10-28T18:32:04.589Z,16.10
2022-10-28T18:34:38.610Z,16.10
2022-10-28T18:37:09.739Z,16.00
2022-10-28T18:39:39.814Z,16.00
2022-10-28T18:42:12.289Z,15.80
2022-10-28T18:44:42.698Z,15.80
2022-10-28T18:47:12.684Z,15.70
2022-10-28T18:49:45.840Z,15.60
2022-10-28T18:52:15.852Z,15.50
2022-10-28T18:54:45.957Z,15.50
2022-10-28T18:57:17.056Z,15.50
2022-10-28T19:00:16.924Z,15.50
2022-10-28T19:02:37.498Z,15.50
2022-10-28T19:05:11.133Z,15.40
2022-10-28T19:07:41.173Z,15.50
2022-10-28T19:10:12.438Z,15.40
2022-10-28T19:12:45.046Z,15.50
2022-10-28T19:15:18.824Z,15.40
2022-10-28T19:17:48.819Z,15.40
2022-10-28T19:20:22.295Z,15.30
2022-10-28T19:22:52.760Z,15.30
2022-10-28T19:25:23.099Z,15.30
2022-10-28T19:27:53.428Z,15.20
2022-10-28T19:30:23.849Z,15.20
2022-10-28T19:32:54.072Z,15.20
2022-10-28T19:35:26.962Z,15.20
2022-10-28T19:37:57.190Z,15.10
2022-10-28T19:40:27.257Z,15.10
2022-10-28T19:42:57.883Z,15.10
2022-10-28T19:45:28.193Z,15.00
2022-10-28T19:47:58.359Z,14.80
2022-10-28T19:50:31.168Z,14.80
2022-10-28T19:53:01.201Z,14.80
2022-10-28T19:55:31.225Z,14.90
2022-10-28T19:58:01.185Z,14.80
2022-10-28T20:00:31.187Z,14.80
2022-10-28T20:03:01.192Z,14.70
2022-10-28T20:05:33.799Z,14.60
2022-10-28T20:08:03.807Z,14.70
2022-10-28T20:10:33.861Z,14.60
2022-10-28T20:13:04.046Z,14.60
2022-10-28T20:15:34.089Z,14.50
2022-10-28T20:18:04.043Z,14.60
2022-10-28T20:20:37.983Z,14.60
2022-10-28T20:23:08.030Z,14.50
2022-10-28T20:25:38.019Z,14.40
2022-10-28T20:28:08.155Z,14.40
2022-10-28T20:30:38.162Z,14.50
2022-10-28T20:33:08.545Z,14.50
2022-10-28T20:35:41.145Z,14.60
2022-10-28T20:38:11.335Z,14.60
2022-10-28T20:40:41.325Z,14.50
2022-10-28T20:43:11.475Z,14.40
2022-10-28T20:45:41.496Z,14.30
2022-10-28T20:48:11.497Z,14.30
2022-10-28T20:50:55.974Z,14.30
2022-10-28T20:53:27.503Z,14.30
2022-10-28T20:55:59.342Z,14.10
2022-10-28T20:58:34.067Z,14.10
2022-10-28T21:01:10.672Z,14.10
2022-10-28T21:03:41.439Z,13.90
2022-10-28T21:06:15.397Z,13.90
2022-10-28T21:08:45.964Z,13.70
2022-10-28T21:11:18.846Z,13.80
2022-10-28T21:13:54.651Z,14.00
2022-10-28T21:16:25.911Z,14.10
2022-10-28T21:18:56.358Z,13.80
2022-10-28T21:21:30.067Z,13.80
2022-10-28T21:24:00.461Z,13.80
2022-10-28T21:26:30.540Z,13.60
2022-10-28T21:29:00.624Z,13.60
2022-10-28T21:31:30.637Z,13.60
2022-10-28T21:34:03.004Z,13.60
2022-10-28T21:36:38.389Z,13.50
2022-10-28T21:39:09.350Z,13.60
2022-10-28T21:41:39.425Z,13.60
2022-10-28T21:44:09.410Z,13.60
2022-10-28T21:46:39.392Z,13.70
2022-10-28T21:49:09.367Z,13.70
2022-10-28T21:51:42.474Z,13.70
2022-10-28T21:54:12.611Z,13.70
2022-10-28T21:56:42.677Z,13.80
2022-10-28T21:59:12.900Z,13.80
2022-10-28T22:01:43.050Z,13.80
2022-10-28T22:04:13.583Z,13.70
2022-10-28T22:09:17.379Z,13.50
2022-10-28T22:11:47.433Z,13.40
2022-10-28T22:14:17.558Z,13.50
2022-10-28T22:16:47.543Z,13.50
2022-10-28T22:19:17.921Z,13.60
2022-10-28T22:21:50.661Z,13.60
2022-10-28T22:24:20.735Z,13.70
2022-10-28T22:26:50.990Z,13.90
2022-10-28T22:29:21.035Z,14.00
2022-10-28T22:31:51.134Z,13.90
2022-10-28T22:34:21.170Z,13.90
2022-10-28T22:36:53.757Z,13.90
2022-10-28T22:39:23.837Z,13.90
2022-10-28T22:41:53.868Z,13.90
2022-10-28T22:44:23.864Z,13.80
2022-10-28T22:46:53.893Z,13.80
2022-10-28T22:49:24.905Z,13.70
2022-10-28T22:51:57.478Z,13.60
2022-10-28T22:54:27.452Z,13.50
2022-10-28T22:56:57.457Z,13.40
2022-10-28T22:59:28.346Z,13.40
2022-10-28T23:01:58.537Z,13.40
2022-10-28T23:04:28.584Z,13.40
2022-10-28T23:07:01.217Z,13.40
2022-10-28T23:09:31.217Z,13.20
2022-10-28T23:12:01.164Z,13.10
2022-10-28T23:14:31.189Z,13.10
2022-10-28T23:17:01.213Z,12.70
2022-10-28T23:19:31.193Z,12.70
2022-10-28T23:22:03.878Z,12.60
2022-10-28T23:24:33.974Z,12.60
2022-10-28T23:27:04.130Z,12.60
2022-10-28T23:29:34.122Z,12.60
2022-10-28T23:32:04.313Z,12.50
2022-10-28T23:34:34.357Z,12.40
2022-10-28T23:37:07.094Z,12.40
2022-10-28T23:39:37.076Z,12.40
2022-10-28T23:42:07.905Z,12.50
2022-10-28T23:44:37.865Z,12.70
2022-10-28T23:47:08.037Z,12.80
2022-10-28T23:49:38.080Z,12.80
2022-10-28T23:52:10.911Z,12.70
2022-10-28T23:54:40.959Z,12.70
2022-10-28T23:57:11.061Z,12.50
2022-10-28T23:59:41.037Z,12.50
